sensor_id;sensor_type;location;lat;lon;timestamp;temperature;humidity
47382;DHT22;33128;51.580;5.170;2022-12-20T00:01:22;11.70;99.90
47382;DHT22;33128;51.580;5.170;2022-12-20T00:03:49;11.70;99.90
47382;DHT22;33128;51.580;5.170;2022-12-20T00:06:17;11.70;99.90
47382;DHT22;33128;51.580;5.170;2022-12-20T00:08:43;11.70;99.90
47382;DHT22;33128;51.580;5.170;2022-12-20T00:11:09;11.70;99.90
47382;DHT22;33128;51.580;5.170;2022-12-20T00:13:35;11.70;99.90
47382;DHT22;33128;51.580;5.170;2022-12-20T00:16:09;11.70;99.90
47382;DHT22;33128;51.580;5.170;2022-12-20T00:18:36;11.70;99.90
47382;DHT22;33128;51.580;5.170;2022-12-20T00:21:04;11.80;99.90
47382;DHT22;33128;51.580;5.170;2022-12-20T00:23:30;11.80;99.90
47382;DHT22;33128;51.580;5.170;2022-12-20T00:26:16;11.80;99.90
47382;DHT22;33128;51.580;5.170;2022-12-20T00:28:42;11.80;99.90
47382;DHT22;33128;51.580;5.170;2022-12-20T00:31:10;11.80;99.90
47382;DHT22;33128;51.580;5.170;2022-12-20T00:33:37;11.80;99.90
47382;DHT22;33128;51.580;5.170;2022-12-20T00:36:05;11.80;99.90
47382;DHT22;33128;51.580;5.170;2022-12-20T00:38:31;11.90;99.90
47382;DHT22;33128;51.580;5.170;2022-12-20T00:41:09;11.80;99.90
47382;DHT22;33128;51.580;5.170;2022-12-20T00:43:36;11.90;99.90
47382;DHT22;33128;51.580;5.170;2022-12-20T00:46:02;11.90;99.90
47382;DHT22;33128;51.580;5.170;2022-12-20T00:48:29;11.90;99.90
47382;DHT22;33128;51.580;5.170;2022-12-20T00:51:02;11.90;99.90
47382;DHT22;33128;51.580;5.170;2022-12-20T00:53:29;11.90;99.90
47382;DHT22;33128;51.580;5.170;2022-12-20T00:55:55;11.90;99.90
47382;DHT22;33128;51.580;5.170;2022-12-20T00:58:21;11.90;99.90
47382;DHT22;33128;51.580;5.170;2022-12-20T01:00:47;11.90;99.90
47382;DHT22;33128;51.580;5.170;2022-12-20T01:03:12;11.90;99.90
47382;DHT22;33128;51.580;5.170;2022-12-20T01:05:38;12.00;99.90
47382;DHT22;33128;51.580;5.170;2022-12-20T01:08:04;12.00;99.90
47382;DHT22;33128;51.580;5.170;2022-12-20T01:10:30;11.90;99.90
47382;DHT22;33128;51.580;5.170;2022-12-20T01:12:59;11.90;99.90
47382;DHT22;33128;51.580;5.170;2022-12-20T01:15:25;11.90;99.90
47382;DHT22;33128;51.580;5.170;2022-12-20T01:17:50;11.90;99.90
47382;DHT22;33128;51.580;5.170;2022-12-20T01:20:16;11.90;99.90
47382;DHT22;33128;51.580;5.170;2022-12-20T01:22:42;11.90;99.90
47382;DHT22;33128;51.580;5.170;2022-12-20T01:25:07;11.90;99.90
47382;DHT22;33128;51.580;5.170;2022-12-20T01:27:33;11.90;99.90
47382;DHT22;33128;51.580;5.170;2022-12-20T01:29:58;11.90;99.90
47382;DHT22;33128;51.580;5.170;2022-12-20T01:32:24;11.80;99.90
47382;DHT22;33128;51.580;5.170;2022-12-20T01:34:50;11.90;99.90
47382;DHT22;33128;51.580;5.170;2022-12-20T01:37:15;12.00;99.90
47382;DHT22;33128;51.580;5.170;2022-12-20T01:39:41;11.90;99.90
47382;DHT22;33128;51.580;5.170;2022-12-20T01:42:13;11.90;99.90
47382;DHT22;33128;51.580;5.170;2022-12-20T01:47:08;11.90;99.90
47382;DHT22;33128;51.580;5.170;2022-12-20T01:49:39;11.90;99.90
47382;DHT22;33128;51.580;5.170;2022-12-20T01:52:18;11.80;99.90
47382;DHT22;33128;51.580;5.170;2022-12-20T01:54:51;11.80;99.90
47382;DHT22;33128;51.580;5.170;2022-12-20T01:57:24;11.80;99.90
47382;DHT22;33128;51.580;5.170;2022-12-20T01:59:54;11.80;99.90
47382;DHT22;33128;51.580;5.170;2022-12-20T02:02:21;11.80;99.90
47382;DHT22;33128;51.580;5.170;2022-12-20T02:04:47;11.90;99.90
47382;DHT22;33128;51.580;5.170;2022-12-20T02:07:19;11.80;99.90
47382;DHT22;33128;51.580;5.170;2022-12-20T02:09:47;11.90;99.90
47382;DHT22;33128;51.580;5.170;2022-12-20T02:12:19;11.90;99.90
47382;DHT22;33128;51.580;5.170;2022-12-20T02:15:11;11.90;99.90
47382;DHT22;33128;51.580;5.170;2022-12-20T02:20:47;11.80;99.90
47382;DHT22;33128;51.580;5.170;2022-12-20T02:32:11;11.80;99.90
47382;DHT22;33128;51.580;5.170;2022-12-20T02:34:40;11.80;99.90
47382;DHT22;33128;51.580;5.170;2022-12-20T02:37:07;11.80;99.90
47382;DHT22;33128;51.580;5.170;2022-12-20T02:39:33;11.90;99.90
47382;DHT22;33128;51.580;5.170;2022-12-20T02:42:04;11.90;99.90
47382;DHT22;33128;51.580;5.170;2022-12-20T02:44:32;11.80;99.90
47382;DHT22;33128;51.580;5.170;2022-12-20T02:47:45;11.80;99.90
47382;DHT22;33128;51.580;5.170;2022-12-20T02:50:08;11.70;99.90
47382;DHT22;33128;51.580;5.170;2022-12-20T02:52:35;11.80;99.90
47382;DHT22;33128;51.580;5.170;2022-12-20T02:55:03;11.80;99.90
47382;DHT22;33128;51.580;5.170;2022-12-20T02:57:44;11.80;99.90
47382;DHT22;33128;51.580;5.170;2022-12-20T03:00:15;11.70;99.90
47382;DHT22;33128;51.580;5.170;2022-12-20T03:02:43;11.70;99.90
47382;DHT22;33128;51.580;5.170;2022-12-20T03:05:28;11.70;99.90
47382;DHT22;33128;51.580;5.170;2022-12-20T03:07:55;11.80;99.90
47382;DHT22;33128;51.580;5.170;2022-12-20T03:10:21;11.90;99.90
47382;DHT22;33128;51.580;5.170;2022-12-20T03:12:50;11.90;99.90
47382;DHT22;33128;51.580;5.170;2022-12-20T03:15:15;11.90;99.90
47382;DHT22;33128;51.580;5.170;2022-12-20T03:17:41;12.00;99.90
47382;DHT22;33128;51.580;5.170;2022-12-20T03:20:07;12.00;99.90
47382;DHT22;33128;51.580;5.170;2022-12-20T03:22:36;12.00;99.90
47382;DHT22;33128;51.580;5.170;2022-12-20T03:25:02;12.00;99.90
47382;DHT22;33128;51.580;5.170;2022-12-20T03:27:27;12.00;99.90
47382;DHT22;33128;51.580;5.170;2022-12-20T03:29:53;12.00;99.90
47382;DHT22;33128;51.580;5.170;2022-12-20T03:32:19;12.00;99.90
47382;DHT22;33128;51.580;5.170;2022-12-20T03:34:45;12.10;99.90
47382;DHT22;33128;51.580;5.170;2022-12-20T03:37:10;12.00;99.90
47382;DHT22;33128;51.580;5.170;2022-12-20T03:39:36;12.00;99.90
47382;DHT22;33128;51.580;5.170;2022-12-20T03:42:01;12.00;99.90
47382;DHT22;33128;51.580;5.170;2022-12-20T03:44:27;12.00;99.90
47382;DHT22;33128;51.580;5.170;2022-12-20T03:46:53;12.10;99.90
47382;DHT22;33128;51.580;5.170;2022-12-20T03:49:18;12.10;99.90
47382;DHT22;33128;51.580;5.170;2022-12-20T03:51:44;12.10;99.90
47382;DHT22;33128;51.580;5.170;2022-12-20T03:54:09;12.10;99.90
47382;DHT22;33128;51.580;5.170;2022-12-20T03:56:35;12.10;99.90
47382;DHT22;33128;51.580;5.170;2022-12-20T03:59:01;12.10;99.90
47382;DHT22;33128;51.580;5.170;2022-12-20T04:01:28;12.10;99.90
47382;DHT22;33128;51.580;5.170;2022-12-20T04:03:54;12.10;99.90
47382;DHT22;33128;51.580;5.170;2022-12-20T04:06:22;12.20;99.90
47382;DHT22;33128;51.580;5.170;2022-12-20T04:08:48;12.10;99.90
47382;DHT22;33128;51.580;5.170;2022-12-20T04:11:14;12.20;99.90
47382;DHT22;33128;51.580;5.170;2022-12-20T04:13:51;12.20;99.90
47382;DHT22;33128;51.580;5.170;2022-12-20T04:16:26;12.20;99.90
47382;DHT22;33128;51.580;5.170;2022-12-20T04:18:52;12.20;99.90
47382;DHT22;33128;51.580;5.170;2022-12-20T04:21:23;12.20;99.90
47382;DHT22;33128;51.580;5.170;2022-12-20T04:23:49;12.20;99.90
47382;DHT22;33128;51.580;5.170;2022-12-20T04:26:15;12.20;99.90
47382;DHT22;33128;51.580;5.170;2022-12-20T04:28:47;12.20;99.90
47382;DHT22;33128;51.580;5.170;2022-12-20T04:31:13;12.10;99.90
47382;DHT22;33128;51.580;5.170;2022-12-20T04:33:39;12.10;99.90
47382;DHT22;33128;51.580;5.170;2022-12-20T04:36:05;12.10;99.90
47382;DHT22;33128;51.580;5.170;2022-12-20T04:38:30;12.10;99.90
47382;DHT22;33128;51.580;5.170;2022-12-20T04:40:57;12.20;99.90
47382;DHT22;33128;51.580;5.170;2022-12-20T04:43:23;12.20;99.90
47382;DHT22;33128;51.580;5.170;2022-12-20T04:45:51;12.20;99.90
47382;DHT22;33128;51.580;5.170;2022-12-20T04:48:17;12.20;99.90
47382;DHT22;33128;51.580;5.170;2022-12-20T04:50:47;12.20;99.90
47382;DHT22;33128;51.580;5.170;2022-12-20T04:53:13;12.20;99.90
47382;DHT22;33128;51.580;5.170;2022-12-20T04:55:57;12.20;99.90
47382;DHT22;33128;51.580;5.170;2022-12-20T04:58:23;12.20;99.90
47382;DHT22;33128;51.580;5.170;2022-12-20T05:00:49;12.30;99.90
47382;DHT22;33128;51.580;5.170;2022-12-20T05:03:17;12.30;99.90
47382;DHT22;33128;51.580;5.170;2022-12-20T05:05:43;12.20;99.90
47382;DHT22;33128;51.580;5.170;2022-12-20T05:08:09;12.30;99.90
47382;DHT22;33128;51.580;5.170;2022-12-20T05:10:34;12.30;99.90
47382;DHT22;33128;51.580;5.170;2022-12-20T05:13:00;12.30;99.90
47382;DHT22;33128;51.580;5.170;2022-12-20T05:15:25;12.30;99.90
47382;DHT22;33128;51.580;5.170;2022-12-20T05:17:51;12.30;99.90
47382;DHT22;33128;51.580;5.170;2022-12-20T05:20:17;12.30;99.90
47382;DHT22;33128;51.580;5.170;2022-12-20T05:22:42;12.30;99.90
47382;DHT22;33128;51.580;5.170;2022-12-20T05:25:26;12.30;99.90
47382;DHT22;33128;51.580;5.170;2022-12-20T05:28:11;12.30;99.90
47382;DHT22;33128;51.580;5.170;2022-12-20T05:30:36;12.30;99.90
47382;DHT22;33128;51.580;5.170;2022-12-20T05:33:03;12.30;99.90
47382;DHT22;33128;51.580;5.170;2022-12-20T05:35:29;12.40;99.90
47382;DHT22;33128;51.580;5.170;2022-12-20T05:37:55;12.40;99.90
47382;DHT22;33128;51.580;5.170;2022-12-20T05:40:20;12.40;99.90
47382;DHT22;33128;51.580;5.170;2022-12-20T05:42:46;12.40;99.90
47382;DHT22;33128;51.580;5.170;2022-12-20T05:45:12;12.40;99.90
47382;DHT22;33128;51.580;5.170;2022-12-20T05:47:38;12.40;99.90
47382;DHT22;33128;51.580;5.170;2022-12-20T05:50:04;12.40;99.90
47382;DHT22;33128;51.580;5.170;2022-12-20T05:52:30;12.40;99.90
47382;DHT22;33128;51.580;5.170;2022-12-20T05:54:55;12.40;99.90
47382;DHT22;33128;51.580;5.170;2022-12-20T05:57:21;12.40;99.90
47382;DHT22;33128;51.580;5.170;2022-12-20T05:59:47;12.50;99.90
47382;DHT22;33128;51.580;5.170;2022-12-20T06:02:13;12.50;99.90
47382;DHT22;33128;51.580;5.170;2022-12-20T06:04:38;12.50;99.90
47382;DHT22;33128;51.580;5.170;2022-12-20T06:07:04;12.50;99.90
47382;DHT22;33128;51.580;5.170;2022-12-20T06:09:31;12.50;99.90
47382;DHT22;33128;51.580;5.170;2022-12-20T06:11:57;12.50;99.90
47382;DHT22;33128;51.580;5.170;2022-12-20T06:14:23;12.50;99.90
47382;DHT22;33128;51.580;5.170;2022-12-20T06:16:49;12.50;99.90
47382;DHT22;33128;51.580;5.170;2022-12-20T06:19:15;12.50;99.90
47382;DHT22;33128;51.580;5.170;2022-12-20T06:21:41;12.50;99.90
47382;DHT22;33128;51.580;5.170;2022-12-20T06:24:06;12.50;99.90
47382;DHT22;33128;51.580;5.170;2022-12-20T06:26:33;12.60;99.90
47382;DHT22;33128;51.580;5.170;2022-12-20T06:29:05;12.60;99.90
47382;DHT22;33128;51.580;5.170;2022-12-20T06:31:33;12.50;99.90
47382;DHT22;33128;51.580;5.170;2022-12-20T06:33:59;12.50;99.90
47382;DHT22;33128;51.580;5.170;2022-12-20T06:36:25;12.50;99.90
47382;DHT22;33128;51.580;5.170;2022-12-20T06:38:50;12.50;99.90
47382;DHT22;33128;51.580;5.170;2022-12-20T06:41:16;12.50;99.90
47382;DHT22;33128;51.580;5.170;2022-12-20T06:43:48;12.50;99.90
47382;DHT22;33128;51.580;5.170;2022-12-20T06:46:14;12.50;99.90
47382;DHT22;33128;51.580;5.170;2022-12-20T06:48:40;12.50;99.90
47382;DHT22;33128;51.580;5.170;2022-12-20T06:51:05;12.50;99.90
47382;DHT22;33128;51.580;5.170;2022-12-20T06:53:31;12.50;99.90
47382;DHT22;33128;51.580;5.170;2022-12-20T06:55:56;12.50;99.90
47382;DHT22;33128;51.580;5.170;2022-12-20T06:58:34;12.50;99.90
47382;DHT22;33128;51.580;5.170;2022-12-20T07:01:00;12.50;99.90
47382;DHT22;33128;51.580;5.170;2022-12-20T07:03:27;12.50;99.90
47382;DHT22;33128;51.580;5.170;2022-12-20T07:05:54;12.50;99.90
47382;DHT22;33128;51.580;5.170;2022-12-20T07:08:21;12.50;99.90
47382;DHT22;33128;51.580;5.170;2022-12-20T07:10:46;12.50;99.90
47382;DHT22;33128;51.580;5.170;2022-12-20T07:13:12;12.50;99.90
47382;DHT22;33128;51.580;5.170;2022-12-20T07:15:38;12.50;99.90
47382;DHT22;33128;51.580;5.170;2022-12-20T07:18:04;12.50;99.90
47382;DHT22;33128;51.580;5.170;2022-12-20T07:20:33;12.50;99.90
47382;DHT22;33128;51.580;5.170;2022-12-20T07:22:58;12.50;99.90
47382;DHT22;33128;51.580;5.170;2022-12-20T07:25:24;12.50;99.90
47382;DHT22;33128;51.580;5.170;2022-12-20T07:27:50;12.50;99.90
47382;DHT22;33128;51.580;5.170;2022-12-20T07:30:17;12.50;99.90
47382;DHT22;33128;51.580;5.170;2022-12-20T07:32:44;12.50;99.90
47382;DHT22;33128;51.580;5.170;2022-12-20T07:35:13;12.50;99.90
47382;DHT22;33128;51.580;5.170;2022-12-20T07:37:40;12.50;99.90
47382;DHT22;33128;51.580;5.170;2022-12-20T07:40:07;12.50;99.90
47382;DHT22;33128;51.580;5.170;2022-12-20T07:42:33;12.50;99.90
47382;DHT22;33128;51.580;5.170;2022-12-20T07:44:58;12.50;99.90
47382;DHT22;33128;51.580;5.170;2022-12-20T07:47:24;12.50;99.90
47382;DHT22;33128;51.580;5.170;2022-12-20T07:49:50;12.50;99.90
47382;DHT22;33128;51.580;5.170;2022-12-20T07:52:18;12.50;99.90
47382;DHT22;33128;51.580;5.170;2022-12-20T07:54:54;12.50;99.90
47382;DHT22;33128;51.580;5.170;2022-12-20T07:57:26;12.50;99.90
47382;DHT22;33128;51.580;5.170;2022-12-20T07:59:56;12.50;99.90
47382;DHT22;33128;51.580;5.170;2022-12-20T08:02:42;12.50;99.90
47382;DHT22;33128;51.580;5.170;2022-12-20T08:05:13;12.60;99.90
47382;DHT22;33128;51.580;5.170;2022-12-20T08:07:40;12.60;99.90
47382;DHT22;33128;51.580;5.170;2022-12-20T08:10:08;12.60;99.90
47382;DHT22;33128;51.580;5.170;2022-12-20T08:12:35;12.60;99.90
47382;DHT22;33128;51.580;5.170;2022-12-20T08:15:01;12.70;99.90
47382;DHT22;33128;51.580;5.170;2022-12-20T08:17:27;12.70;99.90
47382;DHT22;33128;51.580;5.170;2022-12-20T08:19:52;12.70;99.90
47382;DHT22;33128;51.580;5.170;2022-12-20T08:22:18;12.70;99.90
47382;DHT22;33128;51.580;5.170;2022-12-20T08:24:44;12.70;99.90
47382;DHT22;33128;51.580;5.170;2022-12-20T08:27:10;12.80;99.90
47382;DHT22;33128;51.580;5.170;2022-12-20T08:29:36;13.10;99.90
47382;DHT22;33128;51.580;5.170;2022-12-20T08:32:01;13.20;99.90
47382;DHT22;33128;51.580;5.170;2022-12-20T08:34:27;13.30;99.90
47382;DHT22;33128;51.580;5.170;2022-12-20T08:36:53;13.40;99.90
47382;DHT22;33128;51.580;5.170;2022-12-20T08:39:18;13.50;99.90
47382;DHT22;33128;51.580;5.170;2022-12-20T08:41:44;13.40;99.90
47382;DHT22;33128;51.580;5.170;2022-12-20T08:44:10;13.40;99.90
47382;DHT22;33128;51.580;5.170;2022-12-20T08:46:36;13.40;99.90
47382;DHT22;33128;51.580;5.170;2022-12-20T08:49:05;13.50;99.90
47382;DHT22;33128;51.580;5.170;2022-12-20T08:51:31;13.50;99.90
47382;DHT22;33128;51.580;5.170;2022-12-20T08:53:57;13.40;99.90
47382;DHT22;33128;51.580;5.170;2022-12-20T08:56:22;13.50;99.90
47382;DHT22;33128;51.580;5.170;2022-12-20T08:58:48;13.50;99.90
47382;DHT22;33128;51.580;5.170;2022-12-20T09:01:16;13.50;99.90
47382;DHT22;33128;51.580;5.170;2022-12-20T09:03:43;13.60;99.90
47382;DHT22;33128;51.580;5.170;2022-12-20T09:06:19;13.70;99.90
47382;DHT22;33128;51.580;5.170;2022-12-20T09:08:45;13.70;99.90
47382;DHT22;33128;51.580;5.170;2022-12-20T09:11:20;13.70;99.90
47382;DHT22;33128;51.580;5.170;2022-12-20T09:13:48;13.70;99.90
47382;DHT22;33128;51.580;5.170;2022-12-20T09:16:16;13.70;99.90
47382;DHT22;33128;51.580;5.170;2022-12-20T09:18:42;13.80;99.90
47382;DHT22;33128;51.580;5.170;2022-12-20T09:21:08;13.80;99.90
47382;DHT22;33128;51.580;5.170;2022-12-20T09:23:36;13.80;99.90
47382;DHT22;33128;51.580;5.170;2022-12-20T09:26:04;13.80;99.90
47382;DHT22;33128;51.580;5.170;2022-12-20T09:28:33;13.80;99.90
47382;DHT22;33128;51.580;5.170;2022-12-20T09:31:00;13.90;99.90
47382;DHT22;33128;51.580;5.170;2022-12-20T09:33:27;13.90;99.90
47382;DHT22;33128;51.580;5.170;2022-12-20T09:35:53;14.00;99.90
47382;DHT22;33128;51.580;5.170;2022-12-20T09:38:19;14.00;99.90
47382;DHT22;33128;51.580;5.170;2022-12-20T09:40:57;14.10;99.90
47382;DHT22;33128;51.580;5.170;2022-12-20T09:43:23;14.20;99.90
47382;DHT22;33128;51.580;5.170;2022-12-20T09:45:54;14.20;99.90
47382;DHT22;33128;51.580;5.170;2022-12-20T09:48:25;14.20;99.90
47382;DHT22;33128;51.580;5.170;2022-12-20T09:51:15;14.30;99.90
47382;DHT22;33128;51.580;5.170;2022-12-20T09:56:40;14.40;99.90
47382;DHT22;33128;51.580;5.170;2022-12-20T09:59:14;14.40;99.90
47382;DHT22;33128;51.580;5.170;2022-12-20T10:01:49;14.40;99.90
47382;DHT22;33128;51.580;5.170;2022-12-20T10:04:22;14.50;99.90
47382;DHT22;33128;51.580;5.170;2022-12-20T10:17:16;14.50;99.90
47382;DHT22;33128;51.580;5.170;2022-12-20T10:25:21;14.50;99.90
47382;DHT22;33128;51.580;5.170;2022-12-20T10:27:49;14.50;99.90
47382;DHT22;33128;51.580;5.170;2022-12-20T10:30:18;14.50;99.90
47382;DHT22;33128;51.580;5.170;2022-12-20T10:32:48;14.50;99.90
47382;DHT22;33128;51.580;5.170;2022-12-20T10:35:17;14.50;99.90
47382;DHT22;33128;51.580;5.170;2022-12-20T10:38:03;14.50;99.90
47382;DHT22;33128;51.580;5.170;2022-12-20T10:40:38;14.50;99.90
47382;DHT22;33128;51.580;5.170;2022-12-20T10:43:06;14.50;99.90
47382;DHT22;33128;51.580;5.170;2022-12-20T10:45:40;14.50;99.90
47382;DHT22;33128;51.580;5.170;2022-12-20T10:48:38;14.50;99.90
47382;DHT22;33128;51.580;5.170;2022-12-20T10:53:33;14.50;99.90
47382;DHT22;33128;51.580;5.170;2022-12-20T10:56:15;14.50;99.90
47382;DHT22;33128;51.580;5.170;2022-12-20T10:58:51;14.50;99.90
47382;DHT22;33128;51.580;5.170;2022-12-20T11:01:19;14.60;99.90
47382;DHT22;33128;51.580;5.170;2022-12-20T11:03:53;14.50;99.90
47382;DHT22;33128;51.580;5.170;2022-12-20T11:06:22;14.50;99.90
47382;DHT22;33128;51.580;5.170;2022-12-20T11:08:48;14.50;99.90
47382;DHT22;33128;51.580;5.170;2022-12-20T11:11:20;14.50;99.90
47382;DHT22;33128;51.580;5.170;2022-12-20T11:13:47;14.60;99.90
47382;DHT22;33128;51.580;5.170;2022-12-20T11:16:37;14.60;99.90
47382;DHT22;33128;51.580;5.170;2022-12-20T11:25:16;14.60;99.90
47382;DHT22;33128;51.580;5.170;2022-12-20T11:30:24;14.60;99.90
47382;DHT22;33128;51.580;5.170;2022-12-20T11:40:50;14.50;99.90
47382;DHT22;33128;51.580;5.170;2022-12-20T11:49:35;14.60;99.90
47382;DHT22;33128;51.580;5.170;2022-12-20T11:52:34;14.60;99.90
47382;DHT22;33128;51.580;5.170;2022-12-20T11:55:18;14.60;99.90
47382;DHT22;33128;51.580;5.170;2022-12-20T12:00:35;14.50;99.90
47382;DHT22;33128;51.580;5.170;2022-12-20T12:05:52;14.60;99.90
47382;DHT22;33128;51.580;5.170;2022-12-20T12:08:33;14.60;99.90
47382;DHT22;33128;51.580;5.170;2022-12-20T12:11:11;14.60;99.90
47382;DHT22;33128;51.580;5.170;2022-12-20T12:13:39;14.70;99.90
47382;DHT22;33128;51.580;5.170;2022-12-20T12:16:28;14.60;99.90
47382;DHT22;33128;51.580;5.170;2022-12-20T12:18:58;14.70;99.90
47382;DHT22;33128;51.580;5.170;2022-12-20T12:21:30;14.70;99.90
47382;DHT22;33128;51.580;5.170;2022-12-20T12:24:04;14.70;99.90
47382;DHT22;33128;51.580;5.170;2022-12-20T12:26:35;14.70;99.90
47382;DHT22;33128;51.580;5.170;2022-12-20T12:29:08;14.60;99.90
47382;DHT22;33128;51.580;5.170;2022-12-20T12:45:47;14.60;99.90
47382;DHT22;33128;51.580;5.170;2022-12-20T12:48:22;14.70;99.90
47382;DHT22;33128;51.580;5.170;2022-12-20T12:50:53;14.70;99.90
47382;DHT22;33128;51.580;5.170;2022-12-20T12:53:36;14.60;99.90
47382;DHT22;33128;51.580;5.170;2022-12-20T13:01:54;14.60;99.90
47382;DHT22;33128;51.580;5.170;2022-12-20T13:21:16;14.70;99.90
47382;DHT22;33128;51.580;5.170;2022-12-20T13:23:42;14.70;99.90
47382;DHT22;33128;51.580;5.170;2022-12-20T13:29:34;14.70;99.90
47382;DHT22;33128;51.580;5.170;2022-12-20T13:32:01;14.70;99.90
47382;DHT22;33128;51.580;5.170;2022-12-20T13:34:53;14.70;99.90
47382;DHT22;33128;51.580;5.170;2022-12-20T13:43:01;14.70;99.90
47382;DHT22;33128;51.580;5.170;2022-12-20T13:45:28;14.70;99.90
47382;DHT22;33128;51.580;5.170;2022-12-20T13:47:58;14.70;99.90
47382;DHT22;33128;51.580;5.170;2022-12-20T13:50:30;14.70;99.90
47382;DHT22;33128;51.580;5.170;2022-12-20T13:52:57;14.70;99.90
47382;DHT22;33128;51.580;5.170;2022-12-20T13:55:37;14.70;99.90
47382;DHT22;33128;51.580;5.170;2022-12-20T14:00:41;14.70;99.90
47382;DHT22;33128;51.580;5.170;2022-12-20T14:03:23;14.70;99.90
47382;DHT22;33128;51.580;5.170;2022-12-20T14:05:55;14.70;99.90
47382;DHT22;33128;51.580;5.170;2022-12-20T14:08:25;14.70;99.90
47382;DHT22;33128;51.580;5.170;2022-12-20T14:10:52;14.70;99.90
47382;DHT22;33128;51.580;5.170;2022-12-20T14:13:25;14.70;99.90
47382;DHT22;33128;51.580;5.170;2022-12-20T14:15:52;14.70;99.90
47382;DHT22;33128;51.580;5.170;2022-12-20T14:18:23;14.70;99.90
47382;DHT22;33128;51.580;5.170;2022-12-20T14:21:01;14.70;99.90
47382;DHT22;33128;51.580;5.170;2022-12-20T14:23:41;14.70;99.90
47382;DHT22;33128;51.580;5.170;2022-12-20T14:26:15;14.70;99.90
47382;DHT22;33128;51.580;5.170;2022-12-20T14:28:45;14.70;99.90
47382;DHT22;33128;51.580;5.170;2022-12-20T14:36:45;14.70;99.90
47382;DHT22;33128;51.580;5.170;2022-12-20T14:39:28;14.70;99.90
47382;DHT22;33128;51.580;5.170;2022-12-20T14:42:17;14.70;99.90
47382;DHT22;33128;51.580;5.170;2022-12-20T14:44:43;14.70;99.90
47382;DHT22;33128;51.580;5.170;2022-12-20T14:47:24;14.70;99.90
47382;DHT22;33128;51.580;5.170;2022-12-20T14:49:56;14.70;99.90
47382;DHT22;33128;51.580;5.170;2022-12-20T14:52:34;14.70;99.90
47382;DHT22;33128;51.580;5.170;2022-12-20T14:55:06;14.70;99.90
47382;DHT22;33128;51.580;5.170;2022-12-20T14:57:38;14.70;99.90
47382;DHT22;33128;51.580;5.170;2022-12-20T15:00:19;14.70;99.90
47382;DHT22;33128;51.580;5.170;2022-12-20T15:08:14;14.70;99.90
47382;DHT22;33128;51.580;5.170;2022-12-20T15:10:43;14.70;99.90
47382;DHT22;33128;51.580;5.170;2022-12-20T15:13:16;14.70;99.90
47382;DHT22;33128;51.580;5.170;2022-12-20T15:15:42;14.70;99.90
47382;DHT22;33128;51.580;5.170;2022-12-20T15:18:16;14.70;99.90
47382;DHT22;33128;51.580;5.170;2022-12-20T15:20:43;14.70;99.90
47382;DHT22;33128;51.580;5.170;2022-12-20T15:23:18;14.70;99.90
47382;DHT22;33128;51.580;5.170;2022-12-20T15:25:44;14.80;99.90
47382;DHT22;33128;51.580;5.170;2022-12-20T15:28:15;14.70;99.90
47382;DHT22;33128;51.580;5.170;2022-12-20T15:30:42;14.70;99.90
47382;DHT22;33128;51.580;5.170;2022-12-20T15:33:20;14.70;99.90
47382;DHT22;33128;51.580;5.170;2022-12-20T15:35:46;14.70;99.90
47382;DHT22;33128;51.580;5.170;2022-12-20T15:38:18;14.70;99.90
47382;DHT22;33128;51.580;5.170;2022-12-20T15:40:46;14.70;99.90
47382;DHT22;33128;51.580;5.170;2022-12-20T15:43:15;14.80;99.90
47382;DHT22;33128;51.580;5.170;2022-12-20T15:45:43;14.80;99.90
47382;DHT22;33128;51.580;5.170;2022-12-20T15:48:17;14.80;99.90
47382;DHT22;33128;51.580;5.170;2022-12-20T15:50:49;14.80;99.90
47382;DHT22;33128;51.580;5.170;2022-12-20T15:53:17;14.70;99.90
47382;DHT22;33128;51.580;5.170;2022-12-20T15:55:48;14.70;99.90
47382;DHT22;33128;51.580;5.170;2022-12-20T15:58:13;14.70;99.90
47382;DHT22;33128;51.580;5.170;2022-12-20T16:00:39;14.70;99.90
47382;DHT22;33128;51.580;5.170;2022-12-20T16:03:12;14.70;99.90
47382;DHT22;33128;51.580;5.170;2022-12-20T16:05:38;14.70;99.90
47382;DHT22;33128;51.580;5.170;2022-12-20T16:08:04;14.70;99.90
47382;DHT22;33128;51.580;5.170;2022-12-20T16:10:30;14.70;99.90
47382;DHT22;33128;51.580;5.170;2022-12-20T16:12:56;14.60;99.90
47382;DHT22;33128;51.580;5.170;2022-12-20T16:15:22;14.60;99.90
47382;DHT22;33128;51.580;5.170;2022-12-20T16:17:48;14.60;99.90
47382;DHT22;33128;51.580;5.170;2022-12-20T16:20:13;14.60;99.90
47382;DHT22;33128;51.580;5.170;2022-12-20T16:22:39;14.60;99.90
47382;DHT22;33128;51.580;5.170;2022-12-20T16:25:05;14.60;99.90
47382;DHT22;33128;51.580;5.170;2022-12-20T16:27:30;14.60;99.90
47382;DHT22;33128;51.580;5.170;2022-12-20T16:29:56;14.60;99.90
47382;DHT22;33128;51.580;5.170;2022-12-20T16:32:22;14.60;99.90
47382;DHT22;33128;51.580;5.170;2022-12-20T16:34:48;14.60;99.90
47382;DHT22;33128;51.580;5.170;2022-12-20T16:37:14;14.50;99.90
47382;DHT22;33128;51.580;5.170;2022-12-20T16:39:40;14.50;99.90
47382;DHT22;33128;51.580;5.170;2022-12-20T16:42:17;14.50;99.90
47382;DHT22;33128;51.580;5.170;2022-12-20T16:44:49;14.50;99.90
47382;DHT22;33128;51.580;5.170;2022-12-20T16:47:15;14.40;99.90
47382;DHT22;33128;51.580;5.170;2022-12-20T16:49:41;14.40;99.90
47382;DHT22;33128;51.580;5.170;2022-12-20T16:52:15;14.40;99.90
47382;DHT22;33128;51.580;5.170;2022-12-20T16:54:41;14.40;99.90
47382;DHT22;33128;51.580;5.170;2022-12-20T16:57:07;14.40;99.90
47382;DHT22;33128;51.580;5.170;2022-12-20T16:59:34;14.40;99.90
47382;DHT22;33128;51.580;5.170;2022-12-20T17:01:59;14.40;99.90
47382;DHT22;33128;51.580;5.170;2022-12-20T17:04:26;14.40;99.90
47382;DHT22;33128;51.580;5.170;2022-12-20T17:06:54;14.40;99.90
47382;DHT22;33128;51.580;5.170;2022-12-20T17:09:19;14.40;99.90
47382;DHT22;33128;51.580;5.170;2022-12-20T17:11:45;14.40;99.90
47382;DHT22;33128;51.580;5.170;2022-12-20T17:14:12;14.40;99.90
47382;DHT22;33128;51.580;5.170;2022-12-20T17:16:38;14.40;99.90
47382;DHT22;33128;51.580;5.170;2022-12-20T17:19:04;14.40;99.90
47382;DHT22;33128;51.580;5.170;2022-12-20T17:21:37;14.40;99.90
47382;DHT22;33128;51.580;5.170;2022-12-20T17:24:05;14.40;99.90
47382;DHT22;33128;51.580;5.170;2022-12-20T17:26:32;14.40;99.90
47382;DHT22;33128;51.580;5.170;2022-12-20T17:28:58;14.40;99.90
47382;DHT22;33128;51.580;5.170;2022-12-20T17:33:50;14.40;99.90
47382;DHT22;33128;51.580;5.170;2022-12-20T17:36:16;14.40;99.90
47382;DHT22;33128;51.580;5.170;2022-12-20T17:38:42;14.40;99.90
47382;DHT22;33128;51.580;5.170;2022-12-20T17:41:28;14.30;99.90
47382;DHT22;33128;51.580;5.170;2022-12-20T17:43:54;14.30;99.90
47382;DHT22;33128;51.580;5.170;2022-12-20T17:46:20;14.30;99.90
47382;DHT22;33128;51.580;5.170;2022-12-20T17:48:47;14.30;99.90